Aeroporto :
LOGIN :

Iscrizione | Disclaimer

   EN    FR    IT 

 










Sommario :    VFR   VFR Marginale   IFR   IFR Intensivo   IFR Molto Intensivo
Visibilità : 
Base nubi : 
>= 8 km
>= 3000ft
5 / 8 km
1000 / 3000 ft
1500m / 5 km
500 / 1000 ft
800 / 1500m
200 / 500 ft
< 800m
< 200 ft
Simboli :   Temporali  Nebbia  Neve Forte  Precipitazioni Forti  Vento > 20 kt
SIGMETs :   Varie  Temporali  Ghiacco  Turbolenza  Onda orograficha  Ceneri Vulcaniche







- Altitudine del aeroporto : 15 ft
- Codice IATA : BHD
- Carte del aeroporto


EGAC - George Best Belfast City

ULTIMO METAR :
  • 211350Z AUTO 15012KT 9999 SCT042/// 21/12 Q1014

METARs OBSOLETI :
  • 211320Z AUTO 20014KT 9999 NCD 20/10 Q1015
  • 211250Z AUTO 20015KT 9999 NCD 20/10 Q1015
  • 211220Z AUTO 21011KT 170V230 9999 NCD 20/11 Q1015
  • 211150Z AUTO 20014KT 9999 NCD 20/11 Q1016
  • 211120Z AUTO 22013KT 9999 NCD 19/11 Q1016

TAF TAF EGAC
Valido dal 21 a 12 ore il 21 a 21 ore UTC


211056Z 2112/2121 19007KT 9999 FEW030
ATIS : +44 02890 935 124
Nessun NOTAM noto per questo aeroporto.



MetMap, La meteo Aeronautica in un colpo d'occhio ! - Copyright ORBIFLY Dicembre 2007 - Disclaimer

ORBIFLY MET'MAP TEAM :

Programmazione e sviluppo : Alexandra Zaïnal
Concezione e sviluppo : Baudouin d'Aumeries
Co-Programmazione e sviluppo : Marc-Olivier Méhu
Supporto tecnico e logistico : Manuel Goepfert
Aiuto per la traduzione : Arnaldo La Scala

Contatto : metmap@orbifly.com




FONTI E CREDITI :

   NOAA